createdAt,value
2018-01-14T00:00:03.392Z,20.73
2018-01-14T00:00:34.895Z,20.73
2018-01-14T00:01:06.500Z,20.70
2018-01-14T00:01:38.079Z,19.62
2018-01-14T00:02:09.673Z,20.20
2018-01-14T00:02:41.277Z,20.90
2018-01-14T00:03:12.867Z,20.75
2018-01-14T00:03:44.455Z,21.08
2018-01-14T00:04:16.015Z,17.15
2018-01-14T00:04:47.587Z,19.37
2018-01-14T00:05:19.151Z,20.95
2018-01-14T00:05:50.709Z,20.70
2018-01-14T00:06:22.255Z,18.75
2018-01-14T00:06:53.845Z,17.67
2018-01-14T00:07:25.404Z,20.62
2018-01-14T00:07:56.959Z,18.23
2018-01-14T00:08:28.505Z,19.80
2018-01-14T00:09:00.062Z,18.75
2018-01-14T00:09:31.641Z,19.90
2018-01-14T00:10:03.239Z,22.42
2018-01-14T00:10:34.816Z,20.65
2018-01-14T00:11:06.347Z,20.83
2018-01-14T00:11:37.886Z,20.42
2018-01-14T00:12:09.420Z,16.83
2018-01-14T00:12:40.988Z,19.08
2018-01-14T00:13:12.555Z,21.48
2018-01-14T00:13:44.109Z,19.65
2018-01-14T00:14:15.685Z,21.20
2018-01-14T00:14:47.240Z,22.10
2018-01-14T00:15:18.799Z,20.85
2018-01-14T00:15:50.344Z,20.33
2018-01-14T00:16:21.894Z,20.70
2018-01-14T00:16:53.461Z,21.67
2018-01-14T00:17:25.022Z,21.25
2018-01-14T00:17:56.592Z,21.02
2018-01-14T00:18:28.175Z,19.00
2018-01-14T00:18:59.722Z,21.48
2018-01-14T00:19:31.284Z,20.90
2018-01-14T00:20:02.895Z,20.90
2018-01-14T00:20:34.468Z,20.80
2018-01-14T00:21:06.009Z,20.10
2018-01-14T00:21:37.577Z,21.30
2018-01-14T00:22:09.133Z,22.35
2018-01-14T00:22:40.702Z,18.55
2018-01-14T00:23:12.253Z,21.23
2018-01-14T00:23:43.803Z,19.73
2018-01-14T00:24:15.369Z,17.33
2018-01-14T00:24:46.968Z,20.20
2018-01-14T00:25:18.493Z,22.13
2018-01-14T00:25:50.063Z,21.10
2018-01-14T00:26:21.665Z,20.65
2018-01-14T00:26:53.219Z,20.52
2018-01-14T00:27:24.771Z,23.30
2018-01-14T00:27:56.333Z,21.83
2018-01-14T00:28:27.900Z,21.90
2018-01-14T00:28:59.461Z,23.12
2018-01-14T00:29:31.009Z,20.58
2018-01-14T00:30:02.645Z,19.87
2018-01-14T00:30:34.224Z,20.20
2018-01-14T00:31:05.793Z,22.05
2018-01-14T00:31:37.361Z,19.80
2018-01-14T00:32:08.915Z,19.58
2018-01-14T00:32:40.480Z,20.83
2018-01-14T00:33:12.048Z,20.95
2018-01-14T00:33:43.617Z,21.87
2018-01-14T00:34:15.182Z,24.37
2018-01-14T00:34:46.738Z,21.85
2018-01-14T00:35:18.293Z,20.92
2018-01-14T00:35:49.851Z,20.62
2018-01-14T00:36:21.426Z,22.17
2018-01-14T00:36:52.977Z,21.67
2018-01-14T00:37:24.549Z,21.87
2018-01-14T00:37:56.097Z,22.13
2018-01-14T00:38:27.671Z,22.35
2018-01-14T00:38:59.234Z,21.08
2018-01-14T00:39:30.845Z,23.05
2018-01-14T00:40:02.409Z,21.25
2018-01-14T00:40:33.969Z,19.67
2018-01-14T00:41:05.542Z,20.65
2018-01-14T00:41:37.119Z,19.73
2018-01-14T00:42:08.692Z,18.87
2018-01-14T00:42:40.265Z,22.60
2018-01-14T00:43:11.805Z,22.13
2018-01-14T00:43:43.365Z,21.20
2018-01-14T00:44:14.912Z,21.85
2018-01-14T00:44:46.468Z,23.12
2018-01-14T00:45:18.015Z,22.55
2018-01-14T00:45:49.596Z,22.50
2018-01-14T00:46:21.187Z,22.60
2018-01-14T00:46:52.781Z,21.90
2018-01-14T00:47:24.339Z,22.98
2018-01-14T00:47:55.893Z,21.08
2018-01-14T00:48:27.441Z,22.25
2018-01-14T00:48:59.025Z,22.45
2018-01-14T00:49:30.604Z,20.85
2018-01-14T00:50:02.177Z,22.58
2018-01-14T00:50:33.749Z,22.50
2018-01-14T00:51:05.317Z,22.75
2018-01-14T00:51:36.897Z,22.40
2018-01-14T00:52:08.437Z,21.80
2018-01-14T00:52:39.996Z,23.87
2018-01-14T00:53:11.551Z,23.10
2018-01-14T00:53:43.103Z,21.98
2018-01-14T00:54:14.655Z,23.73
2018-01-14T00:54:46.222Z,20.27
2018-01-14T00:55:17.788Z,22.85
2018-01-14T00:55:49.349Z,23.27
2018-01-14T00:56:20.922Z,24.42
2018-01-14T00:56:52.470Z,20.83
2018-01-14T00:57:24.053Z,23.15
2018-01-14T00:57:55.600Z,20.20
2018-01-14T00:58:27.147Z,24.05
2018-01-14T00:58:58.713Z,24.33
2018-01-14T00:59:30.269Z,22.87
2018-01-14T01:00:01.854Z,24.12
2018-01-14T01:00:33.466Z,24.42
2018-01-14T01:01:05.057Z,23.48
2018-01-14T01:01:36.652Z,22.58
2018-01-14T01:02:08.236Z,23.83
2018-01-14T01:02:39.818Z,24.00
2018-01-14T01:03:11.381Z,24.55
2018-01-14T01:03:42.958Z,23.00
2018-01-14T01:04:14.516Z,25.05
2018-01-14T01:04:46.084Z,22.33
2018-01-14T01:05:17.629Z,24.95
2018-01-14T01:05:49.208Z,23.10
2018-01-14T01:06:20.788Z,23.85
2018-01-14T01:06:52.355Z,22.35
2018-01-14T01:07:23.918Z,23.38
2018-01-14T01:07:55.517Z,25.25
2018-01-14T01:08:27.080Z,24.25
2018-01-14T01:08:58.676Z,25.52
2018-01-14T01:09:30.234Z,25.15
2018-01-14T01:10:01.774Z,24.40
2018-01-14T01:10:33.329Z,24.10
2018-01-14T01:11:04.886Z,23.90
2018-01-14T01:11:36.437Z,25.42
2018-01-14T01:12:08.014Z,24.80
2018-01-14T01:12:39.609Z,24.35
2018-01-14T01:13:11.180Z,25.10
2018-01-14T01:13:42.742Z,25.42
2018-01-14T01:14:14.300Z,22.98
2018-01-14T01:14:45.844Z,24.75
2018-01-14T01:15:17.432Z,25.08
2018-01-14T01:15:48.995Z,23.70
2018-01-14T01:16:20.549Z,22.25
2018-01-14T01:16:52.119Z,25.50
2018-01-14T01:17:23.734Z,25.95
2018-01-14T01:17:55.284Z,20.83
2018-01-14T01:18:26.829Z,24.48
2018-01-14T01:18:58.384Z,26.15
2018-01-14T01:19:29.952Z,25.02
2018-01-14T01:20:01.510Z,25.27
2018-01-14T01:20:33.065Z,24.40
2018-01-14T01:21:04.641Z,25.27
2018-01-14T01:21:36.193Z,23.40
2018-01-14T01:22:07.752Z,23.77
2018-01-14T01:22:39.306Z,25.67
2018-01-14T01:23:10.862Z,25.12
2018-01-14T01:23:42.425Z,23.85
2018-01-14T01:24:13.969Z,24.42
2018-01-14T01:24:45.538Z,20.88
2018-01-14T01:25:17.077Z,26.02
2018-01-14T01:25:48.643Z,26.45
2018-01-14T01:26:20.210Z,23.45
2018-01-14T01:26:51.750Z,21.05
2018-01-14T01:27:23.327Z,25.15
2018-01-14T01:27:54.890Z,26.48
2018-01-14T01:28:26.444Z,25.62
2018-01-14T01:28:58.001Z,27.08
2018-01-14T01:29:29.569Z,25.65
2018-01-14T01:30:01.120Z,24.40
2018-01-14T01:30:32.722Z,26.08
2018-01-14T01:31:04.284Z,24.50
2018-01-14T01:31:35.852Z,25.33
2018-01-14T01:32:07.408Z,25.30
2018-01-14T01:32:38.969Z,23.77
2018-01-14T01:33:10.517Z,21.25
2018-01-14T01:33:42.076Z,24.60
2018-01-14T01:34:13.625Z,24.27
2018-01-14T01:34:45.156Z,25.67
2018-01-14T01:35:16.724Z,26.70
2018-01-14T01:35:48.294Z,26.02
2018-01-14T01:36:19.870Z,26.12
2018-01-14T01:36:51.492Z,24.58
2018-01-14T01:37:23.020Z,23.73
2018-01-14T01:37:54.576Z,23.60
2018-01-14T01:38:26.132Z,27.13
2018-01-14T01:38:57.706Z,26.37
2018-01-14T01:39:29.276Z,25.37
2018-01-14T01:40:00.814Z,25.92
2018-01-14T01:40:32.379Z,27.70
2018-01-14T01:41:03.980Z,24.05
2018-01-14T01:41:35.535Z,24.37
2018-01-14T01:42:07.085Z,26.58
2018-01-14T01:42:38.664Z,27.10
2018-01-14T01:43:10.205Z,27.80
2018-01-14T01:43:41.768Z,25.23
2018-01-14T01:44:13.328Z,24.40
2018-01-14T01:44:44.896Z,25.35
2018-01-14T01:45:16.461Z,25.42
2018-01-14T01:45:48.038Z,26.45
2018-01-14T01:46:19.638Z,26.50
2018-01-14T01:46:51.191Z,25.42
2018-01-14T01:47:22.766Z,25.52
2018-01-14T01:47:54.300Z,23.17
2018-01-14T01:48:25.866Z,24.20
2018-01-14T01:48:57.464Z,25.90
2018-01-14T01:49:28.981Z,25.35
2018-01-14T01:50:00.538Z,25.27
2018-01-14T01:50:32.088Z,25.62
2018-01-14T01:51:03.644Z,26.02
2018-01-14T01:51:35.210Z,25.80
2018-01-14T01:52:06.790Z,26.75
2018-01-14T01:52:38.352Z,26.55
2018-01-14T01:53:09.908Z,24.27
2018-01-14T01:53:41.540Z,27.42
2018-01-14T01:54:13.118Z,23.75
2018-01-14T01:54:44.702Z,25.50
2018-01-14T01:55:16.290Z,24.67
2018-01-14T01:55:47.852Z,25.55
2018-01-14T01:56:19.408Z,26.10
2018-01-14T01:56:50.986Z,26.17
2018-01-14T01:57:22.542Z,24.65
2018-01-14T01:57:54.067Z,26.92
2018-01-14T01:58:25.600Z,24.60
2018-01-14T01:58:57.147Z,27.17
2018-01-14T01:59:28.676Z,25.83
2018-01-14T02:00:00.222Z,26.98
2018-01-14T02:00:31.792Z,27.50
2018-01-14T02:01:03.366Z,24.15
2018-01-14T02:01:34.912Z,23.65
2018-01-14T02:02:06.488Z,25.70
2018-01-14T02:02:38.044Z,24.52
2018-01-14T02:03:09.604Z,25.42
2018-01-14T02:03:41.204Z,26.05
2018-01-14T02:04:12.768Z,26.92
2018-01-14T02:04:44.310Z,26.90
2018-01-14T02:05:15.878Z,26.00
2018-01-14T02:05:47.480Z,25.75
2018-01-14T02:06:19.036Z,26.55
2018-01-14T02:06:50.622Z,24.15
2018-01-14T02:07:22.180Z,25.42
2018-01-14T02:07:53.770Z,26.08
2018-01-14T02:08:25.339Z,24.33
2018-01-14T02:08:56.910Z,24.90
2018-01-14T02:09:28.460Z,24.33
2018-01-14T02:10:00.028Z,26.85
2018-01-14T02:10:31.588Z,26.85
2018-01-14T02:11:03.182Z,22.60
2018-01-14T02:11:34.744Z,23.10
2018-01-14T02:12:06.304Z,25.05
2018-01-14T02:12:37.894Z,26.02
2018-01-14T02:13:09.494Z,26.83
2018-01-14T02:13:41.036Z,27.52
2018-01-14T02:14:12.600Z,26.37
2018-01-14T02:14:44.158Z,25.20
2018-01-14T02:15:15.736Z,24.75
2018-01-14T02:15:47.292Z,25.55
2018-01-14T02:16:18.878Z,24.90
2018-01-14T02:16:50.444Z,24.67
2018-01-14T02:17:22.007Z,25.75
2018-01-14T02:17:53.598Z,23.98
2018-01-14T02:18:25.174Z,20.98
2018-01-14T02:18:56.751Z,24.75
2018-01-14T02:19:28.322Z,27.13
2018-01-14T02:19:59.892Z,28.17
2018-01-14T02:20:31.513Z,26.02
2018-01-14T02:21:03.147Z,25.90
2018-01-14T02:21:34.716Z,26.37
2018-01-14T02:22:06.266Z,25.33
2018-01-14T02:22:38.722Z,24.87
2018-01-14T02:23:10.272Z,22.17
2018-01-14T02:23:41.834Z,26.23
2018-01-14T02:24:13.406Z,21.80
2018-01-14T02:24:44.976Z,25.98
2018-01-14T02:25:16.556Z,26.02
2018-01-14T02:25:48.120Z,24.45
2018-01-14T02:26:19.692Z,22.15
2018-01-14T02:26:51.314Z,26.17
2018-01-14T02:27:22.886Z,26.58
2018-01-14T02:27:54.436Z,25.83
2018-01-14T02:28:25.990Z,25.52
2018-01-14T02:28:57.560Z,23.85
2018-01-14T02:29:29.120Z,24.40
2018-01-14T02:30:00.693Z,26.52
2018-01-14T02:30:32.266Z,26.85
2018-01-14T02:31:03.870Z,20.98
2018-01-14T02:31:35.428Z,26.20
2018-01-14T02:32:06.998Z,20.98
2018-01-14T02:32:38.555Z,24.83
2018-01-14T02:33:10.140Z,25.77
2018-01-14T02:33:41.701Z,23.87
2018-01-14T02:34:13.284Z,26.37
2018-01-14T02:34:44.848Z,26.92
2018-01-14T02:35:16.430Z,24.42
2018-01-14T02:35:47.996Z,25.62
2018-01-14T02:36:19.566Z,20.90
2018-01-14T02:36:51.169Z,25.80
2018-01-14T02:37:22.793Z,21.87
2018-01-14T02:37:54.361Z,28.08
2018-01-14T02:38:25.956Z,26.12
2018-01-14T02:38:57.516Z,25.52
2018-01-14T02:39:29.060Z,26.85
2018-01-14T02:40:00.636Z,23.05
2018-01-14T02:40:32.210Z,22.80
2018-01-14T02:41:03.784Z,24.12
2018-01-14T02:41:35.388Z,22.45
2018-01-14T02:42:06.958Z,21.05
2018-01-14T02:42:38.547Z,24.27
2018-01-14T02:43:10.120Z,25.83
2018-01-14T02:43:41.665Z,24.98
2018-01-14T02:44:13.208Z,26.85
2018-01-14T02:44:44.776Z,22.23
2018-01-14T02:45:16.366Z,24.83
2018-01-14T02:45:47.922Z,27.17
2018-01-14T02:46:22.794Z,21.60
2018-01-14T02:46:54.392Z,22.73
2018-01-14T02:47:25.976Z,25.15
2018-01-14T02:47:57.567Z,26.42
2018-01-14T02:48:29.132Z,23.70
2018-01-14T02:49:00.698Z,22.45
2018-01-14T02:49:32.259Z,25.67
2018-01-14T02:50:03.851Z,26.40
2018-01-14T02:50:35.410Z,28.27
2018-01-14T02:51:07.006Z,26.98
2018-01-14T02:51:38.578Z,26.92
2018-01-14T02:52:10.128Z,25.37
2018-01-14T02:52:41.693Z,26.62
2018-01-14T02:53:13.272Z,27.95
2018-01-14T02:53:44.844Z,25.40
2018-01-14T02:54:16.416Z,24.90
2018-01-14T02:54:48.011Z,28.17
2018-01-14T02:55:19.562Z,23.40
2018-01-14T02:55:51.134Z,26.20
2018-01-14T02:56:22.710Z,21.98
2018-01-14T02:56:54.272Z,27.23
2018-01-14T02:57:25.872Z,26.67
2018-01-14T02:57:57.426Z,27.05
2018-01-14T02:58:29.008Z,25.00
2018-01-14T02:59:00.600Z,27.13
2018-01-14T02:59:32.180Z,26.05
2018-01-14T03:00:03.774Z,27.08
2018-01-14T03:00:35.368Z,22.95
2018-01-14T03:01:06.936Z,26.50
2018-01-14T03:01:38.492Z,27.10
2018-01-14T03:02:10.040Z,26.60
2018-01-14T03:02:41.607Z,25.45
2018-01-14T03:03:13.180Z,28.05
2018-01-14T03:03:44.785Z,22.45
2018-01-14T03:04:16.354Z,20.60
2018-01-14T03:04:47.932Z,23.95
2018-01-14T03:05:19.488Z,21.73
2018-01-14T03:05:51.070Z,25.83
2018-01-14T03:06:22.632Z,24.15
2018-01-14T03:06:54.176Z,23.08
2018-01-14T03:07:25.732Z,27.23
2018-01-14T03:07:57.306Z,26.58
2018-01-14T03:08:28.848Z,26.52
2018-01-14T03:09:00.406Z,25.55
2018-01-14T03:09:31.964Z,24.55
2018-01-14T03:10:03.532Z,24.35
2018-01-14T03:10:35.086Z,25.20
2018-01-14T03:11:06.644Z,27.60
2018-01-14T03:11:38.660Z,26.62
2018-01-14T03:12:10.222Z,28.20
2018-01-14T03:12:41.796Z,27.08
2018-01-14T03:13:13.340Z,27.27
2018-01-14T03:13:44.934Z,27.08
2018-01-14T03:14:16.519Z,25.10
2018-01-14T03:14:48.084Z,27.65
2018-01-14T03:15:19.652Z,30.23
2018-01-14T03:15:51.216Z,24.23
2018-01-14T03:16:22.764Z,22.05
2018-01-14T03:16:54.312Z,26.65
2018-01-14T03:17:25.862Z,26.77
2018-01-14T03:17:57.442Z,27.10
2018-01-14T03:18:28.988Z,23.27
2018-01-14T03:19:00.547Z,23.83
2018-01-14T03:19:32.106Z,24.58
2018-01-14T03:20:03.676Z,23.55
2018-01-14T03:20:35.233Z,27.48
2018-01-14T03:21:06.768Z,22.85
2018-01-14T03:21:38.343Z,20.75
2018-01-14T03:22:09.892Z,24.00
2018-01-14T03:22:41.454Z,23.02
2018-01-14T03:23:12.999Z,25.20
2018-01-14T03:23:44.580Z,21.92
2018-01-14T03:24:16.160Z,27.55
2018-01-14T03:24:47.766Z,26.80
2018-01-14T03:25:19.332Z,25.65
2018-01-14T03:25:50.890Z,23.75
2018-01-14T03:26:22.452Z,24.85
2018-01-14T03:26:54.012Z,27.02
2018-01-14T03:27:25.548Z,24.83
2018-01-14T03:27:57.118Z,25.85
2018-01-14T03:28:28.684Z,26.48
2018-01-14T03:29:00.224Z,24.98
2018-01-14T03:29:31.808Z,25.85
2018-01-14T03:30:03.381Z,25.30
2018-01-14T03:30:34.949Z,24.73
2018-01-14T03:31:06.520Z,26.83
2018-01-14T03:31:38.146Z,24.55
2018-01-14T03:32:09.715Z,24.00
2018-01-14T03:32:41.262Z,26.00
2018-01-14T03:33:12.807Z,25.42
2018-01-14T03:33:44.358Z,25.10
2018-01-14T03:34:15.898Z,26.70
2018-01-14T03:34:47.447Z,27.50
2018-01-14T03:35:19.056Z,24.55
2018-01-14T03:35:50.608Z,20.98
2018-01-14T03:36:22.170Z,26.73
2018-01-14T03:36:53.711Z,26.30
2018-01-14T03:37:25.254Z,22.92
2018-01-14T03:37:56.800Z,24.27
2018-01-14T03:38:28.348Z,26.85
2018-01-14T03:38:59.912Z,25.65
2018-01-14T03:39:31.451Z,25.75
2018-01-14T03:40:03.017Z,24.70
2018-01-14T03:40:34.583Z,26.15
2018-01-14T03:41:06.151Z,24.27
2018-01-14T03:41:37.704Z,22.30
2018-01-14T03:42:09.266Z,24.40
2018-01-14T03:42:40.796Z,25.37
2018-01-14T03:43:12.362Z,23.87
2018-01-14T03:43:43.894Z,22.20
2018-01-14T03:44:15.448Z,22.20
2018-01-14T03:44:47.030Z,25.02
2018-01-14T03:45:18.595Z,22.77
2018-01-14T03:45:50.148Z,16.75
2018-01-14T03:46:21.696Z,24.85
2018-01-14T03:46:53.240Z,20.50
2018-01-14T03:47:24.787Z,25.25
2018-01-14T03:47:56.342Z,22.08
2018-01-14T03:48:27.898Z,27.40
2018-01-14T03:48:59.458Z,22.90
2018-01-14T03:49:30.999Z,23.83
2018-01-14T03:50:02.602Z,25.52
2018-01-14T03:50:34.144Z,23.75
2018-01-14T03:51:05.750Z,21.33
2018-01-14T03:51:37.292Z,20.20
2018-01-14T03:52:08.836Z,21.02
2018-01-14T03:52:40.392Z,22.42
2018-01-14T03:53:11.940Z,23.87
2018-01-14T03:53:43.504Z,26.08
2018-01-14T03:54:15.066Z,23.85
2018-01-14T03:54:46.612Z,21.42
2018-01-14T03:55:18.164Z,23.83
2018-01-14T03:55:49.710Z,22.27
2018-01-14T03:56:21.264Z,24.00
2018-01-14T03:56:52.800Z,22.83
2018-01-14T03:57:24.375Z,21.42
2018-01-14T03:57:55.930Z,22.62
2018-01-14T03:58:27.470Z,24.08
2018-01-14T03:58:59.026Z,22.48
2018-01-14T03:59:30.588Z,20.52
2018-01-14T04:00:02.175Z,22.40
2018-01-14T04:00:33.748Z,23.77
2018-01-14T04:01:05.312Z,25.02
2018-01-14T04:01:36.849Z,24.98
2018-01-14T04:02:08.396Z,23.33
2018-01-14T04:02:39.956Z,24.92
2018-01-14T04:03:11.520Z,25.05
2018-01-14T04:03:43.085Z,24.17
2018-01-14T04:04:14.652Z,22.30
2018-01-14T04:04:46.200Z,24.35
2018-01-14T04:05:17.793Z,21.75
2018-01-14T04:05:49.344Z,23.60
2018-01-14T04:06:20.882Z,24.42
2018-01-14T04:06:52.447Z,20.92
2018-01-14T04:07:24.020Z,23.02
2018-01-14T04:07:55.568Z,23.27
2018-01-14T04:08:27.096Z,25.05
2018-01-14T04:08:58.642Z,23.23
2018-01-14T04:09:30.196Z,24.33
2018-01-14T04:10:01.752Z,24.25
2018-01-14T04:10:33.324Z,24.17
2018-01-14T04:11:04.906Z,22.70
2018-01-14T04:11:36.453Z,19.55
2018-01-14T04:12:08.026Z,19.00
2018-01-14T04:12:39.574Z,17.77
2018-01-14T04:13:11.120Z,22.35
2018-01-14T04:13:42.668Z,19.25
2018-01-14T04:14:14.226Z,24.50
2018-01-14T04:14:45.782Z,22.90
2018-01-14T04:15:17.364Z,22.15
2018-01-14T04:15:48.906Z,23.35
2018-01-14T04:16:20.502Z,19.92
2018-01-14T04:16:52.016Z,22.55
2018-01-14T04:17:23.593Z,23.92
2018-01-14T04:17:55.223Z,24.10
2018-01-14T04:18:26.804Z,24.45
2018-01-14T04:18:58.374Z,21.62
2018-01-14T04:19:29.943Z,23.17
2018-01-14T04:20:01.504Z,25.00
2018-01-14T04:20:33.072Z,22.15
2018-01-14T04:21:04.618Z,23.05
2018-01-14T04:21:36.176Z,21.75
2018-01-14T04:22:07.736Z,22.48
2018-01-14T04:22:39.315Z,22.08
2018-01-14T04:23:10.840Z,21.62
2018-01-14T04:23:42.403Z,23.23
2018-01-14T04:24:13.936Z,20.10
2018-01-14T04:24:45.496Z,24.90
2018-01-14T04:25:17.046Z,23.45
2018-01-14T04:25:48.591Z,21.48
2018-01-14T04:26:20.133Z,23.00
2018-01-14T04:26:51.699Z,20.90
2018-01-14T04:27:23.258Z,20.95
2018-01-14T04:27:54.821Z,23.12
2018-01-14T04:28:26.394Z,23.23
2018-01-14T04:28:57.948Z,23.42
2018-01-14T04:29:29.507Z,21.70
2018-01-14T04:30:01.074Z,18.10
2018-01-14T04:30:32.682Z,19.12
2018-01-14T04:31:04.228Z,22.35
2018-01-14T04:31:35.762Z,17.40
2018-01-14T04:32:07.292Z,21.55
2018-01-14T04:32:38.854Z,21.17
2018-01-14T04:33:10.428Z,21.15
2018-01-14T04:33:41.984Z,21.33
2018-01-14T04:34:13.540Z,20.37
2018-01-14T04:34:45.096Z,22.20
2018-01-14T04:35:16.636Z,23.02
2018-01-14T04:35:48.186Z,22.50
2018-01-14T04:36:19.760Z,19.55
2018-01-14T04:36:51.314Z,20.83
2018-01-14T04:37:22.901Z,21.65
2018-01-14T04:37:54.453Z,20.45
2018-01-14T04:38:26.044Z,21.25
2018-01-14T04:38:57.591Z,21.15
2018-01-14T04:39:29.160Z,21.92
2018-01-14T04:40:00.702Z,24.90
2018-01-14T04:40:32.266Z,22.80
2018-01-14T04:41:03.846Z,18.90
2018-01-14T04:41:35.420Z,19.92
2018-01-14T04:42:06.980Z,20.98
2018-01-14T04:42:38.516Z,22.92
2018-01-14T04:43:10.075Z,21.45
2018-01-14T04:43:41.631Z,22.45
2018-01-14T04:44:13.188Z,22.42
2018-01-14T04:44:44.766Z,23.05
2018-01-14T04:45:16.324Z,22.05
2018-01-14T04:45:47.868Z,21.65
2018-01-14T04:46:19.409Z,21.62
2018-01-14T04:46:51.054Z,22.30
2018-01-14T04:47:22.591Z,23.23
2018-01-14T04:47:54.142Z,21.35
2018-01-14T04:48:25.698Z,22.48
2018-01-14T04:48:57.271Z,15.15
2018-01-14T04:49:28.805Z,19.83
2018-01-14T04:50:00.347Z,21.45
2018-01-14T04:50:31.898Z,21.20
2018-01-14T04:51:03.472Z,20.25
2018-01-14T04:51:35.016Z,21.35
2018-01-14T04:52:06.560Z,22.87
2018-01-14T04:52:38.116Z,20.95
2018-01-14T04:53:09.682Z,21.33
2018-01-14T04:53:41.242Z,23.60
2018-01-14T04:54:12.808Z,21.08
2018-01-14T04:54:44.344Z,21.23
2018-01-14T04:55:15.888Z,21.05
2018-01-14T04:55:47.444Z,21.70
2018-01-14T04:56:18.988Z,18.33
2018-01-14T04:56:50.538Z,17.90
2018-01-14T04:57:22.102Z,21.55
2018-01-14T04:57:53.643Z,21.42
2018-01-14T04:58:25.214Z,21.98
2018-01-14T04:58:56.797Z,21.83
2018-01-14T04:59:28.392Z,21.58
2018-01-14T04:59:59.962Z,20.77
2018-01-14T05:00:31.534Z,19.15
2018-01-14T05:01:03.107Z,22.17
2018-01-14T05:01:34.660Z,18.80
2018-01-14T05:02:06.224Z,19.17
2018-01-14T05:02:37.774Z,18.85
2018-01-14T05:03:09.341Z,21.37
2018-01-14T05:03:40.884Z,19.00
2018-01-14T05:04:12.446Z,20.92
2018-01-14T05:04:44.002Z,18.80
2018-01-14T05:05:15.558Z,20.88
2018-01-14T05:05:47.116Z,20.60
2018-01-14T05:06:18.666Z,20.92
2018-01-14T05:06:50.225Z,19.92
2018-01-14T05:07:21.763Z,24.52
2018-01-14T05:07:53.316Z,21.85
2018-01-14T05:08:24.864Z,23.25
2018-01-14T05:08:56.424Z,21.95
2018-01-14T05:09:27.960Z,21.15
2018-01-14T05:09:59.504Z,21.48
2018-01-14T05:10:31.065Z,17.87
2018-01-14T05:11:02.646Z,21.20
2018-01-14T05:11:34.182Z,20.30
2018-01-14T05:12:05.755Z,18.67
2018-01-14T05:12:37.309Z,21.25
2018-01-14T05:13:08.842Z,17.10
2018-01-14T05:13:40.404Z,14.10
2018-01-14T05:14:11.976Z,19.87
2018-01-14T05:14:43.516Z,20.80
2018-01-14T05:15:15.084Z,18.90
2018-01-14T05:15:46.636Z,20.33
2018-01-14T05:16:18.182Z,21.02
2018-01-14T05:16:49.766Z,20.02
2018-01-14T05:17:21.318Z,19.05
2018-01-14T05:17:52.864Z,19.77
2018-01-14T05:18:24.441Z,20.90
2018-01-14T05:18:55.992Z,22.08
2018-01-14T05:19:27.547Z,20.95
2018-01-14T05:19:59.105Z,19.85
2018-01-14T05:20:30.647Z,20.70
2018-01-14T05:21:02.202Z,17.58
2018-01-14T05:21:33.736Z,20.40
2018-01-14T05:22:05.287Z,18.62
2018-01-14T05:22:36.860Z,20.10
2018-01-14T05:23:08.396Z,20.17
2018-01-14T05:23:39.954Z,20.48
2018-01-14T05:24:11.520Z,18.73
2018-01-14T05:24:43.068Z,20.52
2018-01-14T05:25:14.657Z,17.55
2018-01-14T05:25:46.220Z,18.70
2018-01-14T05:26:17.787Z,17.95
2018-01-14T05:26:49.324Z,20.08
2018-01-14T05:27:20.882Z,17.12
2018-01-14T05:27:52.438Z,19.42
2018-01-14T05:28:23.984Z,21.62
2018-01-14T05:28:55.508Z,18.23
2018-01-14T05:29:27.040Z,19.40
2018-01-14T05:29:58.592Z,18.77
2018-01-14T05:30:30.128Z,20.85
2018-01-14T05:31:01.700Z,18.65
2018-01-14T05:31:33.347Z,18.55
2018-01-14T05:32:04.911Z,20.45
2018-01-14T05:32:36.466Z,19.42
2018-01-14T05:33:08.021Z,19.37
2018-01-14T05:33:39.570Z,20.62
2018-01-14T05:34:11.124Z,19.50
2018-01-14T05:34:42.681Z,20.55
2018-01-14T05:35:14.224Z,21.85
2018-01-14T05:35:45.774Z,20.62
2018-01-14T05:36:17.369Z,16.92
2018-01-14T05:36:48.926Z,17.33
2018-01-14T05:37:20.483Z,19.90
2018-01-14T05:37:52.046Z,18.75
2018-01-14T05:38:23.588Z,17.08
2018-01-14T05:38:55.131Z,19.52
2018-01-14T05:39:26.708Z,19.33
2018-01-14T05:39:58.302Z,19.65
2018-01-14T05:40:29.843Z,19.73
2018-01-14T05:41:01.384Z,19.62
2018-01-14T05:41:32.963Z,19.85
2018-01-14T05:42:04.511Z,18.90
2018-01-14T05:42:36.072Z,18.15
2018-01-14T05:43:07.632Z,18.52
2018-01-14T05:43:39.194Z,19.87
2018-01-14T05:44:10.736Z,19.90
2018-01-14T05:44:42.288Z,20.75
2018-01-14T05:45:13.836Z,20.30
2018-01-14T05:45:45.386Z,19.30
2018-01-14T05:46:16.950Z,21.20
2018-01-14T05:46:48.546Z,16.52
2018-01-14T05:47:20.148Z,19.37
2018-01-14T05:47:51.690Z,18.98
2018-01-14T05:48:23.268Z,19.98
2018-01-14T05:48:54.830Z,19.70
2018-01-14T05:49:26.367Z,20.90
2018-01-14T05:49:57.924Z,20.23
2018-01-14T05:50:29.460Z,15.20
2018-01-14T05:51:00.996Z,18.55
2018-01-14T05:51:32.554Z,18.95
2018-01-14T05:52:04.115Z,19.42
2018-01-14T05:52:35.680Z,18.37
2018-01-14T05:53:07.219Z,20.10
2018-01-14T05:53:38.778Z,18.55
2018-01-14T05:54:10.339Z,17.02
2018-01-14T05:54:41.897Z,17.65
2018-01-14T05:55:13.463Z,19.80
2018-01-14T05:55:45.018Z,19.12
2018-01-14T05:56:16.556Z,19.05
2018-01-14T05:56:48.126Z,20.15
2018-01-14T05:57:19.680Z,19.23
2018-01-14T05:57:51.199Z,19.73
2018-01-14T05:58:22.754Z,20.45
2018-01-14T05:58:54.300Z,18.27
2018-01-14T05:59:25.853Z,17.83
2018-01-14T05:59:57.390Z,18.55
2018-01-14T06:00:28.956Z,17.05
2018-01-14T06:01:00.528Z,17.95
2018-01-14T06:01:32.089Z,17.98
2018-01-14T06:02:03.639Z,18.23
2018-01-14T06:02:35.181Z,19.15
2018-01-14T06:03:06.727Z,19.33
2018-01-14T06:03:38.276Z,18.98
2018-01-14T06:04:09.841Z,20.05
2018-01-14T06:04:41.420Z,19.20
2018-01-14T06:05:13.002Z,20.15
2018-01-14T06:05:44.556Z,20.42
2018-01-14T06:06:16.112Z,19.62
2018-01-14T06:06:47.651Z,17.33
2018-01-14T06:07:19.240Z,20.33
2018-01-14T06:07:50.824Z,18.70
2018-01-14T06:08:22.425Z,19.90
2018-01-14T06:08:53.984Z,19.33
2018-01-14T06:09:25.554Z,18.23
2018-01-14T06:09:57.112Z,16.23
2018-01-14T06:10:28.676Z,18.83
2018-01-14T06:11:00.250Z,18.92
2018-01-14T06:11:31.827Z,15.60
2018-01-14T06:12:03.404Z,17.48
2018-01-14T06:12:34.966Z,18.80
2018-01-14T06:13:06.567Z,19.65
2018-01-14T06:13:38.124Z,19.65
2018-01-14T06:14:09.686Z,18.00
2018-01-14T06:14:41.236Z,19.27
2018-01-14T06:15:12.792Z,17.75
2018-01-14T06:15:44.420Z,18.35
2018-01-14T06:16:15.970Z,19.60
2018-01-14T06:16:47.536Z,19.92
2018-01-14T06:17:19.100Z,17.77
2018-01-14T06:17:50.679Z,16.78
2018-01-14T06:18:22.251Z,18.67
2018-01-14T06:18:53.802Z,17.25
2018-01-14T06:19:25.362Z,17.27
2018-01-14T06:19:56.920Z,15.10
2018-01-14T06:20:28.482Z,14.35
2018-01-14T06:21:00.056Z,18.42
2018-01-14T06:21:31.621Z,18.90
2018-01-14T06:22:03.183Z,18.40
2018-01-14T06:22:34.756Z,19.83
2018-01-14T06:23:06.320Z,18.50
2018-01-14T06:23:37.887Z,18.23
2018-01-14T06:24:09.440Z,18.15
2018-01-14T06:24:41.010Z,17.55
2018-01-14T06:25:12.592Z,19.67
2018-01-14T06:25:44.159Z,17.08
2018-01-14T06:26:15.724Z,18.10
2018-01-14T06:26:47.283Z,18.10
2018-01-14T06:27:18.862Z,18.17
2018-01-14T06:27:50.509Z,18.70
2018-01-14T06:28:22.098Z,20.20
2018-01-14T06:28:53.672Z,18.87
2018-01-14T06:29:25.234Z,18.83
2018-01-14T06:29:56.890Z,19.62
2018-01-14T06:30:28.490Z,18.55
2018-01-14T06:31:00.056Z,17.15
2018-01-14T06:31:31.637Z,14.77
2018-01-14T06:32:03.196Z,18.75
2018-01-14T06:32:34.752Z,16.55
2018-01-14T06:33:06.337Z,17.77
2018-01-14T06:33:37.906Z,18.17
2018-01-14T06:34:09.472Z,18.00
2018-01-14T06:34:41.034Z,18.52
2018-01-14T06:35:12.578Z,17.58
2018-01-14T06:35:44.142Z,17.83
2018-01-14T06:36:15.724Z,18.62
2018-01-14T06:36:47.289Z,19.12
2018-01-14T06:37:18.850Z,17.95
2018-01-14T06:37:50.401Z,19.00
2018-01-14T06:38:21.980Z,17.70
2018-01-14T06:38:53.524Z,17.48
2018-01-14T06:39:25.100Z,18.15
2018-01-14T06:39:56.665Z,18.42
2018-01-14T06:40:28.232Z,19.52
2018-01-14T06:40:59.800Z,17.87
2018-01-14T06:41:31.367Z,19.58
2018-01-14T06:42:02.948Z,18.52
2018-01-14T06:42:34.493Z,20.45
2018-01-14T06:43:06.063Z,18.83
2018-01-14T06:43:37.612Z,19.30
2018-01-14T06:44:09.160Z,18.25
2018-01-14T06:44:40.724Z,20.08
2018-01-14T06:45:12.291Z,19.15
2018-01-14T06:45:43.858Z,18.27
2018-01-14T06:46:15.424Z,17.52